Time;durP1;ratioP1;P1;durP2;ratioP2;P2;SDS_P1;SDS_P2;PMS_P1;PMS_P2;Temp;Humidity;BMP_temperature;BMP_pressure;BME280_temperature;BME280_humidity;BME280_pressure;Samples;Min_cycle;Max_cycle;Signal;HPM_P1;HPM_P2
2022/05/05 00:01:45;;;;;;;0.35;0.35;;;;;;;15.68;42.84;101331.28;5107141;28;20405;-79
2022/05/05 00:04:18;;;;;;;1.13;0.80;;;;;;;15.65;43.24;101333.19;5104952;28;20035;-79
2022/05/05 00:06:58;;;;;;;0.57;0.57;;;;;;;15.81;44.10;101333.47;5110380;28;20062;-79
2022/05/05 00:09:29;;;;;;;1.33;1.25;;;;;;;15.59;43.58;101339.59;5123948;28;20146;-78
2022/05/05 00:14:48;;;;;;;1.83;1.73;;;;;;;15.63;43.74;101335.91;5107715;28;20043;-78
2022/05/05 00:17:19;;;;;;;0.55;0.55;;;;;;;15.58;43.15;101335.22;5109279;28;20037;-79
2022/05/05 00:19:50;;;;;;;0.82;0.82;;;;;;;15.57;43.31;101330.88;5105012;28;20077;-78
2022/05/05 00:22:20;;;;;;;1.70;0.50;;;;;;;15.62;43.27;101330.69;5094123;28;20047;-79
2022/05/05 00:24:51;;;;;;;0.88;0.60;;;;;;;15.56;43.47;101324.69;5122520;28;20094;-79
2022/05/05 00:27:24;;;;;;;2.53;2.25;;;;;;;15.56;43.13;101323.84;5093971;28;20082;-79
2022/05/05 00:29:54;;;;;;;;;;;;;;;15.67;44.15;101323.44;5105160;28;20039;-78
2022/05/05 00:32:25;;;;;;;1.55;1.27;;;;;;;15.54;43.39;101321.25;5110407;28;20481;-78
2022/05/05 00:34:55;;;;;;;1.50;0.73;;;;;;;15.63;43.77;101324.44;5085436;28;20050;-79
2022/05/05 00:37:26;;;;;;;1.65;0.93;;;;;;;15.64;43.82;101323.53;5127545;28;20045;-79
2022/05/05 00:39:56;;;;;;;0.40;0.40;;;;;;;15.57;43.77;101315.84;5121415;28;20047;-79
2022/05/05 00:42:27;;;;;;;0.95;0.95;;;;;;;15.60;43.69;101325.44;5110905;28;20030;-79
2022/05/05 00:45:00;;;;;;;0.95;0.93;;;;;;;15.59;43.67;101323.72;5108506;28;20522;-79
2022/05/05 00:47:32;;;;;;;0.47;0.47;;;;;;;15.56;43.61;101323.84;5093493;28;20537;-78
2022/05/05 00:50:03;;;;;;;2.65;2.25;;;;;;;15.53;43.75;101326.59;5124208;28;20042;-79
2022/05/05 00:52:34;;;;;;;1.70;1.30;;;;;;;15.51;43.53;101325.78;5093871;28;20494;-78
2022/05/05 00:55:05;;;;;;;0.40;0.40;;;;;;;15.53;44.49;101323.94;5116283;28;20039;-79
2022/05/05 00:57:37;;;;;;;1.23;0.95;;;;;;;15.52;43.95;101320.47;5114091;28;20027;-78
2022/05/05 01:00:08;;;;;;;0.60;0.60;;;;;;;15.51;43.92;101325.78;5115177;28;20505;-78
2022/05/05 04:17:58;;;;;;;0.90;0.90;;;;;;;14.55;47.31;101385.50;5132873;28;20214;-80
2022/05/05 04:20:29;;;;;;;1.13;1.13;;;;;;;14.52;47.61;101396.19;5123344;28;20126;-79
2022/05/05 04:22:59;;;;;;;2.90;0.68;;;;;;;14.59;48.32;101395.06;5107992;28;20026;-78
2022/05/05 04:25:35;;;;;;;0.80;0.80;;;;;;;14.53;47.75;101399.69;5106205;28;20034;-83
2022/05/05 04:28:10;;;;;;;0.50;0.50;;;;;;;14.47;47.75;101400.72;5091515;28;20030;-78
2022/05/05 04:30:41;;;;;;;1.63;1.45;;;;;;;14.41;47.94;101399.19;5121303;28;20164;-77
2022/05/05 04:33:12;;;;;;;1.42;0.82;;;;;;;14.48;48.16;101405.97;5144940;28;20039;-77
2022/05/05 04:35:44;;;;;;;0.63;0.63;;;;;;;14.48;49.92;101408.63;5115393;28;20037;-76
2022/05/05 04:38:15;;;;;;;1.45;1.35;;;;;;;14.48;48.64;101398.06;5130923;28;20058;-80
2022/05/05 04:40:45;;;;;;;7.65;2.15;;;;;;;14.25;49.99;101405.88;5108676;28;20019;-80
2022/05/05 04:43:16;;;;;;;1.90;1.35;;;;;;;14.33;49.53;101404.69;5106963;28;20316;-79
2022/05/05 04:45:47;;;;;;;1.08;1.08;;;;;;;14.38;49.99;101407.19;5122209;28;20375;-79
2022/05/05 04:48:17;;;;;;;1.70;1.60;;;;;;;14.29;49.48;101411.00;5121883;28;20031;-80
2022/05/05 04:50:48;;;;;;;1.40;1.33;;;;;;;14.40;50.75;101415.94;5108073;28;20892;-79
2022/05/05 04:53:21;;;;;;;1.95;1.85;;;;;;;14.42;50.01;101423.78;5109729;28;20430;-79
2022/05/05 04:55:51;;;;;;;2.53;2.35;;;;;;;14.34;50.16;101416.09;5105751;29;20028;-79
2022/05/05 04:58:23;;;;;;;4.40;2.35;;;;;;;14.29;49.00;101418.91;5089154;28;20617;-79
2022/05/05 05:00:53;;;;;;;2.25;1.70;;;;;;;14.30;48.94;101425.91;5091167;28;20031;-79
2022/05/05 05:03:32;;;;;;;5.25;3.22;;;;;;;14.20;49.49;101426.25;5105282;28;20027;-79
2022/05/05 05:06:05;;;;;;;1.38;1.13;;;;;;;14.21;49.29;101431.50;5105873;28;20117;-79
2022/05/05 05:08:37;;;;;;;3.90;2.53;;;;;;;14.21;49.43;101435.88;5076517;28;20110;-79
2022/05/05 05:11:07;;;;;;;2.40;2.08;;;;;;;14.24;49.43;101438.44;5110976;28;20495;-79
2022/05/05 05:13:38;;;;;;;1.45;1.35;;;;;;;14.23;50.14;101439.34;5106731;28;20023;-79
2022/05/05 05:16:08;;;;;;;3.22;1.85;;;;;;;14.21;51.02;101438.53;5120686;28;20026;-80
2022/05/05 05:18:39;;;;;;;1.85;1.73;;;;;;;14.29;50.93;101440.03;5088404;28;20043;-79
2022/05/05 05:21:09;;;;;;;1.67;1.58;;;;;;;14.10;52.74;101439.72;5107456;28;20054;-79
2022/05/05 05:23:40;;;;;;;6.85;2.05;;;;;;;14.15;51.04;101443.09;5089917;28;20146;-79
2022/05/05 05:26:10;;;;;;;1.35;1.35;;;;;;;14.12;50.75;101443.19;5116259;28;20067;-79
2022/05/05 05:28:41;;;;;;;1.98;1.85;;;;;;;14.16;50.29;101452.75;5106706;28;20088;-79
2022/05/05 05:31:12;;;;;;;1.88;1.77;;;;;;;14.13;50.42;101452.81;5111058;28;20035;-80
2022/05/05 05:33:42;;;;;;;2.33;2.13;;;;;;;14.17;51.59;101458.88;5127398;28;20066;-80
2022/05/05 05:36:13;;;;;;;2.33;1.65;;;;;;;13.93;53.42;101457.81;5112146;28;20246;-78
2022/05/05 05:38:44;;;;;;;2.53;1.50;;;;;;;13.81;54.11;101465.19;5099085;28;20047;-80
2022/05/05 05:41:15;;;;;;;2.22;1.95;;;;;;;13.92;54.45;101466.66;5096747;28;20682;-80
2022/05/05 05:43:45;;;;;;;2.88;1.58;;;;;;;13.88;53.60;101470.28;5110788;28;20063;-78
2022/05/05 05:46:19;;;;;;;1.35;1.33;;;;;;;13.71;54.52;101478.69;5084288;28;20557;-78
2022/05/05 05:48:49;;;;;;;19.65;1.70;;;;;;;13.81;53.79;101475.75;5080767;28;20035;-80
2022/05/05 05:51:20;;;;;;;2.78;2.00;;;;;;;13.89;52.97;101480.78;5090731;28;20187;-79
2022/05/05 05:53:50;;;;;;;5.53;2.38;;;;;;;13.80;55.49;101484.56;5107630;28;20027;-79
2022/05/05 05:56:21;;;;;;;9.05;2.65;;;;;;;13.84;54.18;101482.69;5094233;28;20306;-79
2022/05/05 05:58:54;;;;;;;8.50;2.90;;;;;;;13.81;55.42;101486.28;5093830;28;20565;-79
2022/05/05 06:03:53;;;;;;;1.63;1.52;;;;;;;13.80;54.41;101483.72;5126991;28;20109;-79
2022/05/05 06:04:15;;;;;;;0.77;0.77;;;;;;;13.90;53.93;101489.59;5111285;28;20030;-79
2022/05/05 06:06:45;;;;;;;6.97;3.40;;;;;;;13.68;56.03;101495.44;5110282;28;20033;-80
2022/05/05 06:09:16;;;;;;;1.67;1.23;;;;;;;13.58;55.31;101504.53;5129165;28;20137;-79
2022/05/05 06:11:48;;;;;;;19.83;3.10;;;;;;;13.65;54.25;101485.84;5118349;28;20242;-79
2022/05/05 06:14:18;;;;;;;1.45;1.35;;;;;;;13.47;56.65;101489.00;5137320;28;20070;-79
2022/05/05 06:16:49;;;;;;;5.45;2.58;;;;;;;13.57;54.97;101497.53;5103713;28;20031;-79
2022/05/05 06:19:22;;;;;;;6.38;2.28;;;;;;;13.77;54.52;101495.19;5089865;28;20066;-79
2022/05/05 06:21:52;;;;;;;;;;;;;;;13.95;53.12;101504.38;5110858;28;20105;-80
2022/05/05 06:24:23;;;;;;;1.17;1.17;;;;;;;14.07;53.51;101505.78;5109166;28;19914;-79
2022/05/05 06:26:53;;;;;;;1.58;1.42;;;;;;;14.12;52.71;101503.03;5122606;28;20421;-80
2022/05/05 06:29:27;;;;;;;1.85;1.75;;;;;;;14.11;53.49;101499.50;5092650;28;20284;-80
2022/05/05 06:31:57;;;;;;;;;;;;;;;14.17;53.53;101509.00;5143610;28;20027;-80
2022/05/05 06:34:28;;;;;;;1.65;1.30;;;;;;;14.21;52.81;101507.16;5124543;28;20321;-79
2022/05/05 06:36:59;;;;;;;1.13;0.93;;;;;;;14.31;53.74;101506.81;5101099;28;20553;-80
2022/05/05 06:39:29;;;;;;;0.50;0.35;;;;;;;14.34;52.47;101511.13;5151484;28;20074;-80
2022/05/05 06:42:01;;;;;;;2.55;2.35;;;;;;;14.40;52.62;101508.34;5127526;28;20702;-77
2022/05/05 06:44:31;;;;;;;2.58;2.38;;;;;;;14.43;51.82;101515.28;5106607;28;20073;-78
2022/05/05 06:47:04;;;;;;;1.60;1.50;;;;;;;14.44;52.79;101511.75;5088614;28;20059;-79
2022/05/05 06:49:35;;;;;;;4.50;2.78;;;;;;;14.48;52.84;101514.25;5072136;28;20129;-79
2022/05/05 06:52:05;;;;;;;3.67;2.72;;;;;;;14.53;52.52;101513.22;5110908;28;20145;-79
2022/05/05 06:54:36;;;;;;;2.95;2.10;;;;;;;14.56;52.37;101519.28;5093279;28;20039;-79
2022/05/05 06:57:09;;;;;;;14.23;3.20;;;;;;;14.53;53.65;101507.94;5124032;28;20074;-77
2022/05/05 06:59:40;;;;;;;12.25;3.08;;;;;;;14.63;54.02;101520.81;5107572;28;20121;-79
2022/05/05 07:02:12;;;;;;;1.08;1.05;;;;;;;14.58;52.95;101513.97;5093126;28;20126;-80
2022/05/05 07:07:31;;;;;;;1.50;1.40;;;;;;;14.65;53.12;101526.06;5104157;28;20027;-79
2022/05/05 07:12:54;;;;;;;2.95;2.35;;;;;;;14.92;51.73;101526.09;5107620;28;20026;-80
2022/05/05 07:15:24;;;;;;;1.58;1.50;;;;;;;14.71;53.87;101525.88;5099300;28;20756;-79
2022/05/05 07:17:55;;;;;;;4.43;1.80;;;;;;;14.87;52.62;101530.69;5124528;28;20058;-79
2022/05/05 07:20:26;;;;;;;1.85;1.75;;;;;;;14.85;52.70;101533.38;5123219;28;20081;-79
2022/05/05 07:22:59;;;;;;;9.57;2.95;;;;;;;15.09;51.75;101526.41;5093686;28;20022;-79
2022/05/05 07:25:33;;;;;;;0.82;0.82;;;;;;;15.14;51.70;101534.19;5104248;28;20051;-80
2022/05/05 07:28:03;;;;;;;0.40;0.40;;;;;;;15.16;52.66;101534.16;5108404;28;20444;-79
2022/05/05 07:30:37;;;;;;;2.92;2.17;;;;;;;15.18;51.80;101535.84;5092417;28;20552;-80
2022/05/05 07:33:07;;;;;;;0.95;0.93;;;;;;;15.39;51.14;101531.59;5093771;28;20094;-80
2022/05/05 07:35:38;;;;;;;1.17;1.08;;;;;;;15.56;51.09;101541.56;5107030;28;20493;-79
2022/05/05 07:38:09;;;;;;;2.33;1.50;;;;;;;15.52;51.31;101539.97;5125016;28;20050;-80
2022/05/05 07:40:40;;;;;;;1.52;1.40;;;;;;;15.51;51.36;101543.53;5110940;28;20031;-79
2022/05/05 07:43:10;;;;;;;2.00;1.60;;;;;;;15.60;50.80;101544.97;5109045;28;20102;-79
2022/05/05 07:45:41;;;;;;;1.45;1.33;;;;;;;15.60;50.48;101544.97;5098782;28;20034;-79
2022/05/05 07:48:11;;;;;;;1.40;1.30;;;;;;;15.83;50.19;101540.66;5128212;28;20035;-79
2022/05/05 07:50:42;;;;;;;1.35;1.25;;;;;;;15.76;50.04;101542.66;5115281;28;20038;-79
2022/05/05 07:53:13;;;;;;;3.80;3.40;;;;;;;15.52;50.57;101539.97;5162086;28;20031;-79
2022/05/05 07:55:44;;;;;;;3.20;2.42;;;;;;;15.72;50.10;101557.78;5130709;28;20015;-80
2022/05/05 07:58:15;;;;;;;2.08;1.70;;;;;;;15.75;50.19;101551.53;5093274;28;20070;-79
2022/05/05 08:00:45;;;;;;;1.52;1.45;;;;;;;15.89;49.74;101553.72;5125541;28;20023;-80
2022/05/05 08:03:16;;;;;;;0.90;0.90;;;;;;;15.97;49.65;101556.06;5110326;28;20031;-80
2022/05/05 08:05:46;;;;;;;2.00;1.55;;;;;;;16.03;49.77;101548.75;5125086;28;20035;-80
2022/05/05 08:08:17;;;;;;;6.15;1.17;;;;;;;16.13;49.19;101556.38;5108899;28;20101;-79
2022/05/05 08:10:52;;;;;;;1.35;1.23;;;;;;;16.18;49.08;101551.75;5113190;28;20157;-79
2022/05/05 08:13:23;;;;;;;5.43;2.65;;;;;;;16.10;49.09;101552.06;5112933;28;20035;-79
2022/05/05 08:15:53;;;;;;;1.75;1.65;;;;;;;16.12;49.09;101550.19;5111827;28;20430;-79
2022/05/05 08:18:24;;;;;;;1.08;1.02;;;;;;;16.02;49.54;101554.13;5110103;28;20041;-80
2022/05/05 08:20:54;;;;;;;1.55;1.30;;;;;;;16.16;49.27;101550.94;5107494;28;20663;-79
2022/05/05 08:23:25;;;;;;;0.98;0.95;;;;;;;16.20;48.00;101552.56;5091911;28;20070;-79
2022/05/05 08:28:48;;;;;;;4.68;1.98;;;;;;;15.83;44.89;101562.72;5099421;28;20078;-79
2022/05/05 08:31:18;;;;;;;;;;;;;;;16.22;46.72;101561.31;5114784;28;20027;-79
2022/05/05 08:33:49;;;;;;;2.25;1.35;;;;;;;16.37;45.21;101565.16;5095916;28;19937;-79
2022/05/05 08:36:20;;;;;;;0.70;0.70;;;;;;;16.24;46.85;101559.47;5091994;28;20045;-79
2022/05/05 08:38:50;;;;;;;1.10;1.00;;;;;;;16.35;46.33;101565.22;5106858;28;20047;-79
2022/05/05 08:41:21;;;;;;;0.80;0.73;;;;;;;16.32;45.21;101562.69;5107959;28;20030;-80
2022/05/05 08:43:51;;;;;;;1.20;0.85;;;;;;;16.33;45.82;101569.72;5091201;28;20033;-79
2022/05/05 08:46:28;;;;;;;1.08;0.90;;;;;;;16.34;46.05;101566.16;5093483;28;20043;-79
2022/05/05 08:49:08;;;;;;;13.48;1.40;;;;;;;16.32;46.34;101565.34;5090834;28;20118;-79
2022/05/05 08:51:49;;;;;;;4.45;2.80;;;;;;;16.40;45.79;101573.00;5089872;28;20506;-79
2022/05/05 08:54:22;;;;;;;0.95;0.82;;;;;;;16.36;46.40;101569.59;5122301;28;20065;-79
2022/05/05 08:56:54;;;;;;;1.15;0.90;;;;;;;16.56;45.36;101575.94;5114346;28;20062;-80
2022/05/05 08:59:25;;;;;;;0.75;0.75;;;;;;;16.50;46.42;101577.03;5104274;28;20073;-79
2022/05/05 09:01:56;;;;;;;2.15;1.95;;;;;;;16.69;45.49;101581.63;5113023;28;20066;-79
2022/05/05 09:04:26;;;;;;;0.93;0.93;;;;;;;16.59;45.40;101577.59;5124644;28;20065;-79
2022/05/05 09:06:57;;;;;;;0.80;0.80;;;;;;;16.61;45.85;101575.75;5105045;28;20059;-80
2022/05/05 09:09:34;;;;;;;1.13;1.02;;;;;;;16.68;45.80;101567.50;5107499;28;20206;-78
2022/05/05 09:12:18;;;;;;;0.98;0.93;;;;;;;16.66;45.08;101577.28;5107714;28;20038;-78
2022/05/05 09:14:53;;;;;;;1.13;1.10;;;;;;;16.71;44.58;101568.31;5138868;28;20662;-79
2022/05/05 09:17:29;;;;;;;1.77;1.65;;;;;;;16.55;44.23;101574.22;5123545;28;20042;-80
2022/05/05 09:19:59;;;;;;;1.48;1.05;;;;;;;16.65;44.79;101578.22;5109085;28;20074;-80
2022/05/05 09:22:30;;;;;;;3.45;1.08;;;;;;;16.66;44.63;101577.28;5094074;28;20330;-79
2022/05/05 09:25:02;;;;;;;1.50;1.38;;;;;;;16.63;44.38;101580.06;5120895;28;20023;-79
2022/05/05 09:27:33;;;;;;;2.50;1.63;;;;;;;16.61;44.09;101579.25;5113472;28;20031;-79
2022/05/05 09:30:10;;;;;;;2.38;1.45;;;;;;;16.71;43.77;101578.91;5116984;28;20031;-78
2022/05/05 09:32:45;;;;;;;1.35;1.17;;;;;;;16.71;44.61;101579.75;5121729;28;20035;-79
2022/05/05 09:35:18;;;;;;;2.17;1.48;;;;;;;16.73;44.14;101575.28;5126801;28;20045;-79
2022/05/05 09:37:52;;;;;;;1.67;1.58;;;;;;;16.76;43.57;101576.94;5110899;28;20030;-79
2022/05/05 09:40:24;;;;;;;0.57;0.57;;;;;;;16.70;42.87;101575.38;5127696;28;20039;-78
2022/05/05 09:42:55;;;;;;;1.13;1.10;;;;;;;16.82;42.37;101571.38;5111606;28;20067;-79
2022/05/05 09:45:30;;;;;;;2.28;2.08;;;;;;;16.91;42.01;101576.31;5110698;28;20031;-79
2022/05/05 09:48:02;;;;;;;2.25;1.15;;;;;;;16.82;43.61;101582.84;5095203;28;20050;-79
2022/05/05 09:50:34;;;;;;;7.40;1.27;;;;;;;16.73;42.98;101577.06;5111166;28;20043;-79
2022/05/05 09:58:52;;;;;;;0.32;0.32;;;;;;;17.02;42.77;101583.00;5099228;28;20074;-79
2022/05/05 10:01:31;;;;;;;0.40;0.40;;;;;;;16.98;43.98;101582.28;5118006;28;20038;-79
2022/05/05 10:04:05;;;;;;;0.90;0.85;;;;;;;17.12;44.28;101579.91;5127614;28;20034;-79
2022/05/05 10:06:40;;;;;;;1.90;1.00;;;;;;;17.09;43.32;101581.84;5116420;28;20058;-79
2022/05/05 10:09:16;;;;;;;1.02;0.75;;;;;;;17.26;43.89;101582.00;5110670;28;20413;-79
2022/05/05 10:11:48;;;;;;;0.38;0.38;;;;;;;17.29;44.00;101587.19;5139198;28;20066;-79
2022/05/05 10:14:20;;;;;;;1.33;1.10;;;;;;;17.45;43.52;101589.19;5133790;28;20043;-79
2022/05/05 10:16:52;;;;;;;1.30;1.20;;;;;;;17.50;42.67;101587.19;5124555;28;20319;-79
2022/05/05 10:19:23;;;;;;;3.00;2.38;;;;;;;17.43;42.43;101589.28;5129548;28;20059;-79
2022/05/05 10:22:01;;;;;;;3.63;1.50;;;;;;;17.42;43.07;101586.66;5099136;28;20117;-79
2022/05/05 10:24:38;;;;;;;0.70;0.70;;;;;;;17.50;43.15;101579.25;5127257;28;20085;-79
2022/05/05 10:27:09;;;;;;;0.98;0.98;;;;;;;17.71;42.63;101581.91;5133503;29;20070;-79
2022/05/05 10:29:42;;;;;;;0.60;0.60;;;;;;;17.64;41.49;101581.31;5110217;28;20047;-79
2022/05/05 10:32:22;;;;;;;1.03;0.80;;;;;;;17.55;41.80;101579.94;5110642;28;20039;-78
2022/05/05 10:34:55;;;;;;;2.63;1.20;;;;;;;17.69;41.83;101573.16;5105422;28;20141;-79
2022/05/05 10:37:36;;;;;;;1.60;1.50;;;;;;;17.81;42.05;101583.22;5142645;28;20026;-78
2022/05/05 10:40:10;;;;;;;1.67;1.58;;;;;;;17.88;42.36;101574.09;5107102;28;20049;-78
2022/05/05 10:42:46;;;;;;;0.60;0.60;;;;;;;17.98;42.25;101586.94;5126212;28;20073;-79
2022/05/05 10:45:27;;;;;;;1.73;1.63;;;;;;;17.94;42.05;101584.41;5092356;28;20046;-79
2022/05/05 10:47:58;;;;;;;2.38;2.08;;;;;;;17.86;41.56;101589.22;5133807;28;20027;-78
2022/05/05 10:50:56;;;;;;;2.55;1.40;;;;;;;17.91;42.11;101589.00;5115195;28;20066;-78
2022/05/05 10:53:28;;;;;;;8.80;1.33;;;;;;;17.96;41.52;101580.88;5125921;28;20106;-79
2022/05/05 10:56:01;;;;;;;0.82;0.82;;;;;;;17.93;41.77;101587.16;5108376;28;20561;-78
2022/05/05 10:59:03;;;;;;;0.30;0.30;;;;;;;18.04;42.63;101589.34;5093698;28;20053;-78
2022/05/05 11:01:57;;;;;;;1.33;1.23;;;;;;;18.02;42.14;101581.44;5120964;28;20056;-78
2022/05/05 11:04:30;;;;;;;1.38;1.27;;;;;;;18.06;41.67;101588.34;5120656;28;20520;-77
2022/05/05 11:07:19;;;;;;;0.63;0.63;;;;;;;18.04;41.78;101584.03;5127554;28;20019;-78
2022/05/05 11:09:50;;;;;;;1.10;1.10;;;;;;;18.15;42.34;101581.75;5116218;28;20051;-79
2022/05/05 11:12:31;;;;;;;1.20;1.08;;;;;;;18.23;41.43;101581.41;5097035;28;20069;-80
2022/05/05 11:21:33;;;;;;;1.95;1.35;;;;;;;18.34;40.78;101583.56;5124642;28;20042;-79
2022/05/05 11:24:04;;;;;;;1.65;1.38;;;;;;;18.36;41.70;101584.38;5138712;28;20066;-79
2022/05/05 11:26:35;;;;;;;0.80;0.80;;;;;;;18.42;41.34;101586.72;5092671;28;20034;-79
2022/05/05 11:29:15;;;;;;;2.47;1.75;;;;;;;18.44;40.65;101586.66;5108353;28;20122;-79
2022/05/05 11:31:57;;;;;;;1.83;1.73;;;;;;;18.44;40.01;101587.53;5111553;28;20047;-79
2022/05/05 11:34:32;;;;;;;1.65;1.20;;;;;;;18.61;39.69;101599.16;5093628;28;20047;-79
2022/05/05 11:37:05;;;;;;;1.25;1.15;;;;;;;18.58;40.16;101596.66;5093361;28;20023;-79
2022/05/05 11:39:36;;;;;;;2.03;1.60;;;;;;;18.54;40.69;101582.63;5125148;28;20070;-79
2022/05/05 11:42:11;;;;;;;13.15;1.48;;;;;;;18.72;41.51;101591.53;5094198;28;20046;-79
2022/05/05 11:44:44;;;;;;;1.35;1.17;;;;;;;18.84;40.69;101585.66;5139546;28;20046;-79
2022/05/05 11:47:19;;;;;;;1.33;1.17;;;;;;;18.75;40.33;101591.41;5107653;28;20027;-80
2022/05/05 11:49:52;;;;;;;1.80;1.10;;;;;;;19.01;40.65;101581.34;5122623;28;20066;-79
2022/05/05 11:52:23;;;;;;;;;;;;;;;19.10;39.66;101583.53;5090910;28;20093;-78
2022/05/05 11:54:56;;;;;;;1.88;1.48;;;;;;;18.98;41.38;101581.47;5120671;28;20458;-79
2022/05/05 11:57:34;;;;;;;0.85;0.80;;;;;;;19.16;40.04;101583.22;5104379;28;20061;-79
2022/05/05 12:02:57;;;;;;;1.25;1.00;;;;;;;19.44;38.51;101581.84;5123759;28;20438;-79
2022/05/05 12:05:32;;;;;;;4.18;3.03;;;;;;;19.54;38.66;101581.38;5106924;28;20111;-79
2022/05/05 12:08:02;;;;;;;4.15;1.50;;;;;;;19.66;38.47;101588.72;5120254;28;20031;-79
2022/05/05 12:10:35;;;;;;;1.27;1.17;;;;;;;19.46;38.90;101587.09;5148132;28;20037;-80
2022/05/05 12:13:06;;;;;;;0.95;0.95;;;;;;;19.55;38.42;101578.63;5101117;28;20066;-80
2022/05/05 12:15:39;;;;;;;1.20;1.20;;;;;;;19.65;38.23;101573.69;5121211;28;20050;-80
2022/05/05 12:18:16;;;;;;;2.72;1.48;;;;;;;20.00;37.43;101575.50;5092573;28;20027;-80
2022/05/05 12:20:48;;;;;;;1.40;1.30;;;;;;;19.96;39.19;101585.41;5092503;28;20043;-80
2022/05/05 12:23:22;;;;;;;2.55;1.55;;;;;;;19.92;38.77;101578.56;5107266;28;20441;-79
2022/05/05 12:25:55;;;;;;;1.17;1.10;;;;;;;19.89;37.73;101578.69;5093982;28;20037;-79
2022/05/05 12:28:29;;;;;;;0.80;0.80;;;;;;;19.85;38.01;101575.34;5103824;28;20138;-79
2022/05/05 12:30:59;;;;;;;1.58;1.35;;;;;;;19.95;38.83;101575.75;5140978;28;20257;-78
2022/05/05 12:33:39;;;;;;;1.35;1.25;;;;;;;19.81;37.63;101576.44;5144730;28;20041;-79
2022/05/05 12:36:13;;;;;;;0.77;0.65;;;;;;;20.06;38.72;101576.00;5127464;28;20034;-79
2022/05/05 12:38:44;;;;;;;1.00;1.00;;;;;;;20.23;37.85;101576.91;5125443;28;20026;-79
2022/05/05 12:41:15;;;;;;;1.42;1.33;;;;;;;20.25;37.94;101569.69;5164184;28;20054;-78
2022/05/05 12:43:46;;;;;;;1.58;1.48;;;;;;;20.32;37.78;101571.06;5131262;28;20047;-79
2022/05/05 12:46:17;;;;;;;1.55;1.38;;;;;;;20.34;38.34;101573.63;5135886;28;20042;-79
2022/05/05 12:48:51;;;;;;;0.75;0.75;;;;;;;20.06;38.44;101578.66;5106560;28;20043;-79
2022/05/05 12:51:33;;;;;;;0.93;0.82;;;;;;;20.25;37.97;101570.53;5108950;28;20039;-79
2022/05/05 12:59:36;;;;;;;0.65;0.65;;;;;;;20.31;38.12;101580.00;5118778;28;20031;-79
2022/05/05 12:59:58;;;;;;;1.50;1.30;;;;;;;20.47;37.98;101589.81;5104863;28;20050;-79
2022/05/05 13:02:29;;;;;;;0.63;0.63;;;;;;;20.24;37.20;101587.50;5091942;28;20026;-79
2022/05/05 13:04:59;;;;;;;1.45;1.35;;;;;;;20.33;37.71;101580.78;5106546;28;20047;-79
2022/05/05 13:07:30;;;;;;;2.08;1.42;;;;;;;20.52;38.73;101583.28;5092617;28;20606;-80
2022/05/05 13:10:00;;;;;;;2.30;1.63;;;;;;;20.52;37.97;101582.44;5090626;28;20125;-80
2022/05/05 13:12:31;;;;;;;0.68;0.68;;;;;;;20.44;36.52;101572.19;5091986;28;20027;-80
2022/05/05 13:15:02;;;;;;;0.82;0.82;;;;;;;20.45;35.96;101577.44;5092106;28;20102;-79
2022/05/05 13:17:35;;;;;;;1.35;1.25;;;;;;;20.64;35.63;101573.75;5091920;28;20041;-79
2022/05/05 13:20:06;;;;;;;3.03;1.10;;;;;;;20.66;36.05;101571.03;5106326;28;20560;-80
2022/05/05 13:22:37;;;;;;;2.00;1.27;;;;;;;20.87;37.13;101574.28;5107208;28;20039;-79
2022/05/05 13:25:08;;;;;;;0.85;0.85;;;;;;;21.00;35.41;101569.97;5141066;28;20041;-79
2022/05/05 13:27:38;;;;;;;1.58;1.48;;;;;;;21.01;36.46;101573.50;5092154;28;20030;-79
2022/05/05 13:30:09;;;;;;;3.15;1.58;;;;;;;20.99;36.23;101581.59;5120342;28;20130;-79
2022/05/05 13:32:40;;;;;;;1.30;1.15;;;;;;;20.96;35.04;101572.91;5106602;28;20027;-79
2022/05/05 13:35:11;;;;;;;0.60;0.60;;;;;;;21.00;35.36;101577.97;5098652;28;20043;-79
2022/05/05 13:37:41;;;;;;;1.60;1.38;;;;;;;21.16;34.21;101577.94;5118484;28;20062;-78
2022/05/05 13:40:11;;;;;;;1.38;0.93;;;;;;;21.30;36.23;101574.47;5090676;28;20057;-79
2022/05/05 13:42:51;;;;;;;2.28;1.45;;;;;;;21.37;35.45;101575.81;5123323;28;20039;-78
2022/05/05 13:45:22;;;;;;;1.25;1.17;;;;;;;21.56;34.61;101574.72;5122085;28;20390;-79
2022/05/05 13:47:53;;;;;;;0.85;0.63;;;;;;;21.56;35.89;101572.06;5119193;28;20026;-78
2022/05/05 13:50:24;;;;;;;1.58;1.48;;;;;;;21.40;36.17;101572.13;5089054;28;20043;-78
2022/05/05 13:52:57;;;;;;;0.98;0.88;;;;;;;21.47;36.56;101570.81;5123347;28;20824;-80
2022/05/05 13:55:32;;;;;;;1.42;1.30;;;;;;;21.53;35.41;101567.75;5091266;28;20054;-81
2022/05/05 13:58:04;;;;;;;0.98;0.93;;;;;;;21.71;36.23;101562.28;5092186;28;20027;-81
2022/05/05 14:00:34;;;;;;;1.75;0.85;;;;;;;21.69;35.58;101562.38;5089826;28;20572;-80
2022/05/05 14:03:06;;;;;;;1.50;1.40;;;;;;;21.69;35.78;101570.38;5111629;28;20066;-80
2022/05/05 14:05:37;;;;;;;0.50;0.50;;;;;;;21.97;35.03;101560.69;5118035;28;20086;-80
2022/05/05 14:13:45;;;;;;;1.15;1.05;;;;;;;21.96;34.01;101563.47;5127945;28;20113;-81
2022/05/05 14:16:19;;;;;;;1.38;1.00;;;;;;;21.92;34.34;101564.59;5115482;28;20015;-82
2022/05/05 14:18:53;;;;;;;0.35;0.35;;;;;;;22.22;34.41;101561.81;5108563;28;20034;-82
2022/05/05 14:21:23;;;;;;;0.38;0.38;;;;;;;22.28;34.52;101563.25;5131342;28;20029;-81
2022/05/05 14:23:54;;;;;;;0.88;0.88;;;;;;;22.35;33.55;101558.38;5115963;28;20417;-80
2022/05/05 14:26:25;;;;;;;0.52;0.52;;;;;;;22.40;32.83;101561.63;5110969;28;20055;-82
2022/05/05 14:28:55;;;;;;;0.60;0.57;;;;;;;22.26;34.02;101562.47;5127316;28;20050;-80
2022/05/05 14:31:26;;;;;;;0.77;0.70;;;;;;;22.38;33.41;101560.84;5095620;28;20430;-83
2022/05/05 14:34:00;;;;;;;0.30;0.30;;;;;;;22.47;33.66;101560.28;5104785;28;20137;-79
2022/05/05 14:36:31;;;;;;;0.70;0.70;;;;;;;22.42;31.35;101562.41;5145611;28;20043;-77
2022/05/05 14:39:02;;;;;;;0.85;0.70;;;;;;;22.49;33.22;101555.69;5127246;28;20649;-79
2022/05/05 14:41:32;;;;;;;0.95;0.80;;;;;;;22.47;33.56;101557.59;5118545;28;20081;-79
2022/05/05 14:44:03;;;;;;;0.30;0.30;;;;;;;22.76;32.48;101554.88;5120381;28;21949;-79
2022/05/05 14:46:34;;;;;;;0.65;0.65;;;;;;;22.60;32.89;101550.50;5139505;28;20131;-81
2022/05/05 14:49:07;;;;;;;0.88;0.88;;;;;;;22.69;32.50;101545.50;5091215;28;20072;-82
2022/05/05 14:51:48;;;;;;;1.08;0.88;;;;;;;22.90;33.40;101552.13;5106148;29;20034;-81
2022/05/05 14:54:19;;;;;;;5.97;0.70;;;;;;;22.64;32.06;101554.72;5106920;28;20051;-81
2022/05/05 14:56:49;;;;;;;0.50;0.50;;;;;;;;;;5125207;28;20023;-82
2022/05/05 14:59:19;;;;;;;0.80;0.80;;;;;;;23.07;31.96;101552.84;5099826;29;20043;-82
2022/05/05 15:01:50;;;;;;;1.10;1.00;;;;;;;23.31;31.55;101557.53;5097158;28;20030;-82
2022/05/05 15:04:24;;;;;;;0.68;0.60;;;;;;;23.62;31.48;101564.31;5095027;28;20057;-82
2022/05/05 15:06:54;;;;;;;2.45;1.30;;;;;;;23.84;31.93;101558.28;5125761;28;20518;-82
2022/05/05 15:09:25;;;;;;;0.30;0.30;;;;;;;24.09;30.71;101551.22;5094743;28;20121;-83
2022/05/05 15:11:57;;;;;;;0.45;0.30;;;;;;;24.55;29.18;101556.91;5094984;28;20038;-80
2022/05/05 15:14:28;;;;;;;0.47;0.47;;;;;;;24.80;30.15;101564.91;5124722;28;20532;-80
2022/05/05 15:17:05;;;;;;;0.52;0.52;;;;;;;25.37;29.76;101554.38;5125917;28;20038;-79
2022/05/05 15:19:38;;;;;;;2.70;1.45;;;;;;;25.68;29.75;101556.56;5109389;28;20467;-78
2022/05/05 15:22:09;;;;;;;1.90;1.10;;;;;;;25.73;28.27;101547.16;5123697;28;20109;-80
2022/05/05 15:24:39;;;;;;;1.50;0.93;;;;;;;25.85;27.62;101545.34;5121412;28;20148;-78
2022/05/05 15:27:10;;;;;;;0.98;0.95;;;;;;;25.73;28.14;101549.84;5118309;28;20739;-83
2022/05/05 15:29:40;;;;;;;0.40;0.40;;;;;;;26.63;28.25;101555.28;5124825;28;20043;-81
2022/05/05 15:32:11;;;;;;;0.65;0.65;;;;;;;27.03;28.13;101549.28;5108739;28;20463;-84
2022/05/05 15:34:41;;;;;;;0.35;0.35;;;;;;;26.89;25.52;101552.28;5090946;28;20073;-81
2022/05/05 15:37:12;;;;;;;0.60;0.60;;;;;;;26.97;25.86;101550.69;5103868;28;20058;-81
2022/05/05 15:39:43;;;;;;;14.30;2.20;;;;;;;27.00;26.32;101555.78;5098068;28;20070;-81
2022/05/05 15:42:13;;;;;;;0.60;0.60;;;;;;;27.13;26.75;101557.47;5110777;28;20137;-81